Beaver Island, Canada
Current Conditions -  °F | °C
As of 12:00 AM on Tuesday 21 Oct 2014 (Local Time) from CYHZ Reporting Station
Clear Clear  
Wind Chill: 31°   Ceiling: Unl
Heat Index: 37°   Visibility: 15mi
Dew Point: 34°   Wind: 8mph
Humidity: 87%   Direction: 220°SW
Pressure: 29.96"   Gusts: NA
Location:  44.75°N, 62.8°W
Report Text: CYHZ 210300Z 22007KT 15SM SKC 03/01 A2996 RMK SLP151
Loading
Personal Weather Stations






























Interactive Weather Map
Tropical Storm Tracking
New forecast layout! Learn more

10-Day Weather Forecast

Advertisements
Track Severe Weather on mobile